sensor_id;sensor_type;location;lat;lon;timestamp;pressure;altitude;pressure_sealevel;temperature;humidity
22333;BME280;11334;36.986;-121.936;2024-03-07T00:00:10;100747.63;;;15.20;100.00
22333;BME280;11334;36.986;-121.936;2024-03-07T00:02:45;100745.59;;;15.22;100.00
22333;BME280;11334;36.986;-121.936;2024-03-07T00:05:14;100746.16;;;15.18;100.00
22333;BME280;11334;36.986;-121.936;2024-03-07T00:07:41;100741.19;;;15.15;100.00
22333;BME280;11334;36.986;-121.936;2024-03-07T00:10:09;100737.88;;;15.13;100.00
22333;BME280;11334;36.986;-121.936;2024-03-07T00:12:36;100740.72;;;15.12;100.00
22333;BME280;11334;36.986;-121.936;2024-03-07T00:15:05;100736.56;;;15.09;100.00
22333;BME280;11334;36.986;-121.936;2024-03-07T00:17:32;100729.50;;;15.16;100.00
22333;BME280;11334;36.986;-121.936;2024-03-07T00:19:58;100738.91;;;15.12;100.00
22333;BME280;11334;36.986;-121.936;2024-03-07T00:22:25;100733.34;;;15.14;100.00
22333;BME280;11334;36.986;-121.936;2024-03-07T00:24:53;100727.63;;;15.17;100.00
22333;BME280;11334;36.986;-121.936;2024-03-07T00:27:19;100728.13;;;15.20;100.00
22333;BME280;11334;36.986;-121.936;2024-03-07T00:29:47;100731.06;;;15.25;100.00
22333;BME280;11334;36.986;-121.936;2024-03-07T00:32:22;100722.09;;;15.32;100.00
22333;BME280;11334;36.986;-121.936;2024-03-07T00:34:49;100726.50;;;15.40;100.00
22333;BME280;11334;36.986;-121.936;2024-03-07T00:37:16;100720.84;;;15.49;100.00
22333;BME280;11334;36.986;-121.936;2024-03-07T00:39:43;100720.84;;;15.49;100.00
22333;BME280;11334;36.986;-121.936;2024-03-07T00:42:09;100719.72;;;15.58;100.00
22333;BME280;11334;36.986;-121.936;2024-03-07T00:44:36;100717.56;;;15.68;100.00
22333;BME280;11334;36.986;-121.936;2024-03-07T00:47:02;100716.44;;;15.77;100.00
22333;BME280;11334;36.986;-121.936;2024-03-07T00:49:29;100715.84;;;15.81;100.00
22333;BME280;11334;36.986;-121.936;2024-03-07T00:51:57;100708.88;;;15.80;100.00
22333;BME280;11334;36.986;-121.936;2024-03-07T00:54:24;100717.13;;;15.85;100.00
22333;BME280;11334;36.986;-121.936;2024-03-07T00:56:50;100719.81;;;15.85;100.00
22333;BME280;11334;36.986;-121.936;2024-03-07T00:59:16;100723.56;;;15.90;100.00
22333;BME280;11334;36.986;-121.936;2024-03-07T01:01:42;100717.00;;;15.93;100.00
22333;BME280;11334;36.986;-121.936;2024-03-07T01:04:09;100710.03;;;15.92;100.00
22333;BME280;11334;36.986;-121.936;2024-03-07T01:06:35;100711.03;;;15.91;100.00
22333;BME280;11334;36.986;-121.936;2024-03-07T01:09:02;100712.22;;;15.88;100.00
22333;BME280;11334;36.986;-121.936;2024-03-07T01:11:29;100713.44;;;15.86;100.00
22333;BME280;11334;36.986;-121.936;2024-03-07T01:13:55;100708.22;;;15.78;100.00
22333;BME280;11334;36.986;-121.936;2024-03-07T01:16:22;100702.25;;;15.76;100.00
22333;BME280;11334;36.986;-121.936;2024-03-07T01:18:49;100704.03;;;15.69;100.00
22333;BME280;11334;36.986;-121.936;2024-03-07T01:21:16;100711.97;;;15.63;100.00
22333;BME280;11334;36.986;-121.936;2024-03-07T01:23:42;100709.44;;;15.55;100.00
22333;BME280;11334;36.986;-121.936;2024-03-07T01:26:09;100711.38;;;15.47;100.00
22333;BME280;11334;36.986;-121.936;2024-03-07T01:28:35;100705.97;;;15.40;100.00
22333;BME280;11334;36.986;-121.936;2024-03-07T01:31:02;100706.34;;;15.37;100.00
22333;BME280;11334;36.986;-121.936;2024-03-07T01:33:29;100705.88;;;15.34;100.00
22333;BME280;11334;36.986;-121.936;2024-03-07T01:35:55;100709.75;;;15.31;100.00
22333;BME280;11334;36.986;-121.936;2024-03-07T01:38:21;100704.16;;;15.26;100.00
22333;BME280;11334;36.986;-121.936;2024-03-07T01:40:48;100699.28;;;15.30;100.00
22333;BME280;11334;36.986;-121.936;2024-03-07T01:43:14;100700.66;;;15.26;100.00
22333;BME280;11334;36.986;-121.936;2024-03-07T01:45:40;100711.06;;;15.21;100.00
22333;BME280;11334;36.986;-121.936;2024-03-07T01:48:09;100710.53;;;15.11;100.00
22333;BME280;11334;36.986;-121.936;2024-03-07T01:50:36;100714.88;;;15.12;100.00
22333;BME280;11334;36.986;-121.936;2024-03-07T01:53:06;100711.69;;;15.09;100.00
22333;BME280;11334;36.986;-121.936;2024-03-07T01:55:36;100720.47;;;15.03;100.00
22333;BME280;11334;36.986;-121.936;2024-03-07T01:58:04;100710.59;;;15.03;100.00
22333;BME280;11334;36.986;-121.936;2024-03-07T02:00:32;100711.63;;;15.02;100.00
22333;BME280;11334;36.986;-121.936;2024-03-07T02:03:00;100710.78;;;15.02;100.00
22333;BME280;11334;36.986;-121.936;2024-03-07T02:05:26;100716.59;;;15.05;100.00
22333;BME280;11334;36.986;-121.936;2024-03-07T02:07:53;100716.06;;;14.95;100.00
22333;BME280;11334;36.986;-121.936;2024-03-07T02:10:19;100725.91;;;14.95;100.00
22333;BME280;11334;36.986;-121.936;2024-03-07T02:12:46;100719.28;;;14.91;100.00
22333;BME280;11334;36.986;-121.936;2024-03-07T02:15:12;100724.97;;;14.88;100.00
22333;BME280;11334;36.986;-121.936;2024-03-07T02:17:40;100714.22;;;14.82;100.00
22333;BME280;11334;36.986;-121.936;2024-03-07T02:20:07;100717.41;;;14.77;100.00
22333;BME280;11334;36.986;-121.936;2024-03-07T02:22:37;100713.94;;;14.77;100.00
22333;BME280;11334;36.986;-121.936;2024-03-07T02:25:04;100726.44;;;14.76;100.00
22333;BME280;11334;36.986;-121.936;2024-03-07T02:27:31;100720.38;;;14.68;100.00
22333;BME280;11334;36.986;-121.936;2024-03-07T02:29:57;100728.72;;;14.65;100.00
22333;BME280;11334;36.986;-121.936;2024-03-07T02:32:24;100731.97;;;14.60;100.00
22333;BME280;11334;36.986;-121.936;2024-03-07T02:34:52;100736.44;;;14.60;100.00
22333;BME280;11334;36.986;-121.936;2024-03-07T02:37:18;100741.16;;;14.58;100.00
22333;BME280;11334;36.986;-121.936;2024-03-07T02:39:45;100740.88;;;14.53;100.00
22333;BME280;11334;36.986;-121.936;2024-03-07T02:42:12;100739.19;;;14.52;100.00
22333;BME280;11334;36.986;-121.936;2024-03-07T02:44:39;100744.72;;;14.51;100.00
22333;BME280;11334;36.986;-121.936;2024-03-07T02:47:06;100749.94;;;14.44;100.00
22333;BME280;11334;36.986;-121.936;2024-03-07T02:49:33;100747.81;;;14.40;100.00
22333;BME280;11334;36.986;-121.936;2024-03-07T02:52:00;100752.31;;;14.39;100.00
22333;BME280;11334;36.986;-121.936;2024-03-07T02:54:27;100748.72;;;14.32;100.00
22333;BME280;11334;36.986;-121.936;2024-03-07T02:56:53;100753.31;;;14.24;100.00
22333;BME280;11334;36.986;-121.936;2024-03-07T02:59:19;100750.16;;;14.21;100.00
22333;BME280;11334;36.986;-121.936;2024-03-07T03:01:46;100754.19;;;14.17;100.00
22333;BME280;11334;36.986;-121.936;2024-03-07T03:04:12;100749.03;;;14.15;100.00
22333;BME280;11334;36.986;-121.936;2024-03-07T03:06:39;100759.25;;;14.12;100.00
22333;BME280;11334;36.986;-121.936;2024-03-07T03:09:05;100765.56;;;14.11;100.00
22333;BME280;11334;36.986;-121.936;2024-03-07T03:11:31;100771.75;;;14.11;100.00
22333;BME280;11334;36.986;-121.936;2024-03-07T03:13:58;100767.88;;;14.14;100.00
22333;BME280;11334;36.986;-121.936;2024-03-07T03:16:24;100768.13;;;14.04;100.00
22333;BME280;11334;36.986;-121.936;2024-03-07T03:18:50;100777.66;;;13.99;100.00
22333;BME280;11334;36.986;-121.936;2024-03-07T03:21:17;100774.31;;;13.97;100.00
22333;BME280;11334;36.986;-121.936;2024-03-07T03:23:43;100781.31;;;13.98;100.00
22333;BME280;11334;36.986;-121.936;2024-03-07T03:26:09;100778.66;;;13.98;100.00
22333;BME280;11334;36.986;-121.936;2024-03-07T03:28:36;100773.66;;;13.95;100.00
22333;BME280;11334;36.986;-121.936;2024-03-07T03:31:02;100770.84;;;13.88;100.00
22333;BME280;11334;36.986;-121.936;2024-03-07T03:33:30;100773.50;;;13.88;100.00
22333;BME280;11334;36.986;-121.936;2024-03-07T03:35:56;100779.41;;;13.84;100.00
22333;BME280;11334;36.986;-121.936;2024-03-07T03:38:22;100783.41;;;13.80;100.00
22333;BME280;11334;36.986;-121.936;2024-03-07T03:40:48;100780.38;;;13.83;100.00
22333;BME280;11334;36.986;-121.936;2024-03-07T03:43:15;100781.88;;;13.86;100.00
22333;BME280;11334;36.986;-121.936;2024-03-07T03:45:41;100777.72;;;13.83;100.00
22333;BME280;11334;36.986;-121.936;2024-03-07T03:48:07;100780.06;;;13.78;100.00
22333;BME280;11334;36.986;-121.936;2024-03-07T03:50:34;100776.13;;;13.74;100.00
22333;BME280;11334;36.986;-121.936;2024-03-07T03:53:00;100781.97;;;13.70;100.00
22333;BME280;11334;36.986;-121.936;2024-03-07T03:55:29;100789.13;;;13.69;100.00
22333;BME280;11334;36.986;-121.936;2024-03-07T03:57:58;100792.97;;;13.67;100.00
22333;BME280;11334;36.986;-121.936;2024-03-07T04:00:24;100801.50;;;13.62;100.00
22333;BME280;11334;36.986;-121.936;2024-03-07T04:02:51;100806.00;;;13.62;100.00
22333;BME280;11334;36.986;-121.936;2024-03-07T04:05:18;100805.16;;;13.61;100.00
22333;BME280;11334;36.986;-121.936;2024-03-07T04:07:45;100803.84;;;13.57;100.00
22333;BME280;11334;36.986;-121.936;2024-03-07T04:10:12;100803.50;;;13.60;100.00
22333;BME280;11334;36.986;-121.936;2024-03-07T04:12:40;100814.50;;;13.57;100.00
22333;BME280;11334;36.986;-121.936;2024-03-07T04:15:08;100802.81;;;13.58;100.00
22333;BME280;11334;36.986;-121.936;2024-03-07T04:17:35;100819.16;;;13.56;100.00
22333;BME280;11334;36.986;-121.936;2024-03-07T04:20:02;100819.16;;;13.56;100.00
22333;BME280;11334;36.986;-121.936;2024-03-07T04:22:35;100813.16;;;13.54;100.00
22333;BME280;11334;36.986;-121.936;2024-03-07T04:25:05;100825.34;;;13.48;100.00
22333;BME280;11334;36.986;-121.936;2024-03-07T04:27:33;100821.84;;;13.48;100.00
22333;BME280;11334;36.986;-121.936;2024-03-07T04:30:04;100824.16;;;13.51;100.00
22333;BME280;11334;36.986;-121.936;2024-03-07T04:32:31;100823.00;;;13.53;100.00
22333;BME280;11334;36.986;-121.936;2024-03-07T04:34:57;100824.13;;;13.58;100.00
22333;BME280;11334;36.986;-121.936;2024-03-07T04:37:23;100833.13;;;13.57;100.00
22333;BME280;11334;36.986;-121.936;2024-03-07T04:39:50;100830.31;;;13.59;100.00
22333;BME280;11334;36.986;-121.936;2024-03-07T04:42:16;100837.28;;;13.60;100.00
22333;BME280;11334;36.986;-121.936;2024-03-07T04:44:42;100833.78;;;13.59;100.00
22333;BME280;11334;36.986;-121.936;2024-03-07T04:47:09;100827.81;;;13.57;100.00
22333;BME280;11334;36.986;-121.936;2024-03-07T04:49:35;100843.63;;;13.51;100.00
22333;BME280;11334;36.986;-121.936;2024-03-07T04:52:02;100842.81;;;13.51;100.00
22333;BME280;11334;36.986;-121.936;2024-03-07T04:54:31;100847.31;;;13.50;100.00
22333;BME280;11334;36.986;-121.936;2024-03-07T04:57:00;100839.81;;;13.46;100.00
22333;BME280;11334;36.986;-121.936;2024-03-07T04:59:26;100849.50;;;13.47;100.00
22333;BME280;11334;36.986;-121.936;2024-03-07T05:01:52;100860.13;;;13.47;100.00
22333;BME280;11334;36.986;-121.936;2024-03-07T05:04:19;100858.47;;;13.46;100.00
22333;BME280;11334;36.986;-121.936;2024-03-07T05:06:45;100859.63;;;13.43;100.00
22333;BME280;11334;36.986;-121.936;2024-03-07T05:09:15;100861.81;;;13.40;100.00
22333;BME280;11334;36.986;-121.936;2024-03-07T05:11:51;100858.19;;;13.33;100.00
22333;BME280;11334;36.986;-121.936;2024-03-07T05:14:18;100870.16;;;13.29;100.00
22333;BME280;11334;36.986;-121.936;2024-03-07T05:16:44;100871.63;;;13.31;100.00
22333;BME280;11334;36.986;-121.936;2024-03-07T05:19:14;100872.81;;;13.29;100.00
22333;BME280;11334;36.986;-121.936;2024-03-07T05:21:40;100874.84;;;13.27;100.00
22333;BME280;11334;36.986;-121.936;2024-03-07T05:24:09;100876.84;;;13.25;100.00
22333;BME280;11334;36.986;-121.936;2024-03-07T05:26:35;100875.34;;;13.23;100.00
22333;BME280;11334;36.986;-121.936;2024-03-07T05:29:07;100880.34;;;13.18;100.00
22333;BME280;11334;36.986;-121.936;2024-03-07T05:31:35;100880.69;;;13.15;100.00
22333;BME280;11334;36.986;-121.936;2024-03-07T05:34:03;100884.69;;;13.11;100.00
22333;BME280;11334;36.986;-121.936;2024-03-07T05:36:31;100887.34;;;13.11;100.00
22333;BME280;11334;36.986;-121.936;2024-03-07T05:38:58;100883.19;;;13.08;100.00
22333;BME280;11334;36.986;-121.936;2024-03-07T05:41:35;100877.53;;;13.03;100.00
22333;BME280;11334;36.986;-121.936;2024-03-07T05:44:01;100883.69;;;13.04;100.00
22333;BME280;11334;36.986;-121.936;2024-03-07T05:46:28;100885.69;;;13.02;100.00
22333;BME280;11334;36.986;-121.936;2024-03-07T05:48:55;100884.19;;;13.07;100.00
22333;BME280;11334;36.986;-121.936;2024-03-07T05:51:25;100888.19;;;13.03;100.00
22333;BME280;11334;36.986;-121.936;2024-03-07T05:53:51;100876.56;;;12.96;100.00
22333;BME280;11334;36.986;-121.936;2024-03-07T05:56:18;100881.03;;;12.96;100.00
22333;BME280;11334;36.986;-121.936;2024-03-07T05:58:44;100889.38;;;12.85;100.00
22333;BME280;11334;36.986;-121.936;2024-03-07T06:01:10;100887.19;;;12.89;100.00
22333;BME280;11334;36.986;-121.936;2024-03-07T06:03:37;100881.41;;;12.85;100.00
22333;BME280;11334;36.986;-121.936;2024-03-07T06:06:05;100900.50;;;12.89;100.00
22333;BME280;11334;36.986;-121.936;2024-03-07T06:08:37;100902.00;;;12.83;100.00
22333;BME280;11334;36.986;-121.936;2024-03-07T06:11:04;100915.63;;;12.80;100.00
22333;BME280;11334;36.986;-121.936;2024-03-07T06:13:31;100904.81;;;12.82;100.00
22333;BME280;11334;36.986;-121.936;2024-03-07T06:15:57;100903.84;;;12.83;100.00
22333;BME280;11334;36.986;-121.936;2024-03-07T06:18:24;100905.66;;;12.82;100.00
22333;BME280;11334;36.986;-121.936;2024-03-07T06:20:50;100905.81;;;12.81;100.00
22333;BME280;11334;36.986;-121.936;2024-03-07T06:23:16;100910.66;;;12.85;100.00
22333;BME280;11334;36.986;-121.936;2024-03-07T06:25:43;100915.63;;;12.88;100.00
22333;BME280;11334;36.986;-121.936;2024-03-07T06:28:13;100914.63;;;12.89;100.00
22333;BME280;11334;36.986;-121.936;2024-03-07T06:30:43;100906.47;;;12.98;100.00
22333;BME280;11334;36.986;-121.936;2024-03-07T06:33:11;100909.63;;;13.02;100.00
22333;BME280;11334;36.986;-121.936;2024-03-07T06:35:39;100903.13;;;13.04;100.00
22333;BME280;11334;36.986;-121.936;2024-03-07T06:38:09;100910.59;;;13.09;100.00
22333;BME280;11334;36.986;-121.936;2024-03-07T06:40:37;100906.78;;;13.11;100.00
22333;BME280;11334;36.986;-121.936;2024-03-07T06:43:09;100916.75;;;13.09;100.00
22333;BME280;11334;36.986;-121.936;2024-03-07T06:45:39;100915.78;;;13.02;100.00
22333;BME280;11334;36.986;-121.936;2024-03-07T06:48:06;100914.78;;;13.03;100.00
22333;BME280;11334;36.986;-121.936;2024-03-07T06:50:37;100918.25;;;13.04;100.00
22333;BME280;11334;36.986;-121.936;2024-03-07T06:53:04;100916.28;;;13.06;100.00
22333;BME280;11334;36.986;-121.936;2024-03-07T06:55:33;100915.59;;;13.04;100.00
22333;BME280;11334;36.986;-121.936;2024-03-07T06:58:03;100914.94;;;13.02;100.00
22333;BME280;11334;36.986;-121.936;2024-03-07T07:00:32;100920.09;;;13.03;100.00
22333;BME280;11334;36.986;-121.936;2024-03-07T07:03:02;100917.44;;;13.03;100.00
22333;BME280;11334;36.986;-121.936;2024-03-07T07:05:29;100918.59;;;13.09;100.00
22333;BME280;11334;36.986;-121.936;2024-03-07T07:07:56;100923.91;;;13.09;100.00
22333;BME280;11334;36.986;-121.936;2024-03-07T07:10:22;100923.78;;;13.02;100.00
22333;BME280;11334;36.986;-121.936;2024-03-07T07:12:50;100931.56;;;13.04;100.00
22333;BME280;11334;36.986;-121.936;2024-03-07T07:15:20;100919.75;;;13.06;100.00
22333;BME280;11334;36.986;-121.936;2024-03-07T07:17:48;100921.44;;;13.07;100.00
22333;BME280;11334;36.986;-121.936;2024-03-07T07:20:16;100934.06;;;13.05;100.00
22333;BME280;11334;36.986;-121.936;2024-03-07T07:22:45;100930.91;;;13.10;100.00
22333;BME280;11334;36.986;-121.936;2024-03-07T07:25:14;100929.41;;;13.15;100.00
22333;BME280;11334;36.986;-121.936;2024-03-07T07:27:44;100915.78;;;13.10;100.00
22333;BME280;11334;36.986;-121.936;2024-03-07T07:30:16;100933.91;;;13.15;100.00
22333;BME280;11334;36.986;-121.936;2024-03-07T07:32:45;100925.06;;;13.14;100.00
22333;BME280;11334;36.986;-121.936;2024-03-07T07:35:12;100923.91;;;13.09;100.00
22333;BME280;11334;36.986;-121.936;2024-03-07T07:37:39;100923.06;;;13.16;100.00
22333;BME280;11334;36.986;-121.936;2024-03-07T07:40:10;100927.56;;;13.16;100.00
22333;BME280;11334;36.986;-121.936;2024-03-07T07:42:43;100935.72;;;13.22;100.00
22333;BME280;11334;36.986;-121.936;2024-03-07T07:45:10;100932.38;;;13.20;100.00
22333;BME280;11334;36.986;-121.936;2024-03-07T07:47:40;100935.53;;;13.16;100.00
22333;BME280;11334;36.986;-121.936;2024-03-07T07:50:16;100939.69;;;13.18;100.00
22333;BME280;11334;36.986;-121.936;2024-03-07T07:52:53;100939.22;;;13.15;100.00
22333;BME280;11334;36.986;-121.936;2024-03-07T07:55:21;100949.31;;;13.19;100.00
22333;BME280;11334;36.986;-121.936;2024-03-07T07:57:56;100949.88;;;13.15;100.00
22333;BME280;11334;36.986;-121.936;2024-03-07T08:00:24;100942.84;;;13.14;100.00
22333;BME280;11334;36.986;-121.936;2024-03-07T08:02:56;100946.00;;;13.09;100.00
22333;BME280;11334;36.986;-121.936;2024-03-07T08:05:24;100937.41;;;13.07;100.00
22333;BME280;11334;36.986;-121.936;2024-03-07T08:07:59;100946.88;;;13.10;100.00
22333;BME280;11334;36.986;-121.936;2024-03-07T08:10:27;100952.34;;;13.08;100.00
22333;BME280;11334;36.986;-121.936;2024-03-07T08:12:58;100949.03;;;13.06;100.00
22333;BME280;11334;36.986;-121.936;2024-03-07T08:15:29;100946.00;;;13.09;100.00
22333;BME280;11334;36.986;-121.936;2024-03-07T08:17:57;100948.19;;;13.06;100.00
22333;BME280;11334;36.986;-121.936;2024-03-07T08:20:25;100944.72;;;13.05;100.00
22333;BME280;11334;36.986;-121.936;2024-03-07T08:22:52;100952.34;;;13.00;100.00
22333;BME280;11334;36.986;-121.936;2024-03-07T08:25:24;100941.53;;;13.02;100.00
22333;BME280;11334;36.986;-121.936;2024-03-07T08:27:53;100949.38;;;12.95;100.00
22333;BME280;11334;36.986;-121.936;2024-03-07T08:30:20;100948.69;;;13.01;100.00
22333;BME280;11334;36.986;-121.936;2024-03-07T08:32:49;100948.53;;;12.95;100.00
22333;BME280;11334;36.986;-121.936;2024-03-07T08:35:17;100948.03;;;12.92;100.00
22333;BME280;11334;36.986;-121.936;2024-03-07T08:37:45;100948.38;;;12.81;100.00
22333;BME280;11334;36.986;-121.936;2024-03-07T08:40:12;100944.22;;;12.78;100.00
22333;BME280;11334;36.986;-121.936;2024-03-07T08:42:46;100950.34;;;12.79;100.00
22333;BME280;11334;36.986;-121.936;2024-03-07T08:45:13;100941.53;;;12.70;100.00
22333;BME280;11334;36.986;-121.936;2024-03-07T08:47:55;100944.00;;;12.72;100.00
22333;BME280;11334;36.986;-121.936;2024-03-07T08:50:22;100945.00;;;12.63;100.00
22333;BME280;11334;36.986;-121.936;2024-03-07T08:52:50;100939.34;;;12.58;100.00
22333;BME280;11334;36.986;-121.936;2024-03-07T08:55:20;100943.31;;;12.62;100.00
22333;BME280;11334;36.986;-121.936;2024-03-07T08:57:47;100937.69;;;12.57;100.00
22333;BME280;11334;36.986;-121.936;2024-03-07T09:00:16;100940.34;;;12.57;100.00
22333;BME280;11334;36.986;-121.936;2024-03-07T09:02:50;100942.00;;;12.58;100.00
22333;BME280;11334;36.986;-121.936;2024-03-07T09:05:18;100940.66;;;12.54;100.00
22333;BME280;11334;36.986;-121.936;2024-03-07T09:07:46;100942.00;;;12.50;100.00
22333;BME280;11334;36.986;-121.936;2024-03-07T09:10:13;100939.66;;;12.47;100.00
22333;BME280;11334;36.986;-121.936;2024-03-07T09:12:42;100939.00;;;12.45;100.00
22333;BME280;11334;36.986;-121.936;2024-03-07T09:15:08;100936.34;;;12.45;100.00
22333;BME280;11334;36.986;-121.936;2024-03-07T09:17:38;100935.34;;;12.46;100.00
22333;BME280;11334;36.986;-121.936;2024-03-07T09:20:05;100939.66;;;12.47;100.00
22333;BME280;11334;36.986;-121.936;2024-03-07T09:22:32;100938.81;;;12.39;100.00
22333;BME280;11334;36.986;-121.936;2024-03-07T09:24:59;100950.59;;;12.36;100.00
22333;BME280;11334;36.986;-121.936;2024-03-07T09:27:25;100944.94;;;12.31;100.00
22333;BME280;11334;36.986;-121.936;2024-03-07T09:29:51;100945.09;;;12.30;100.00
22333;BME280;11334;36.986;-121.936;2024-03-07T09:32:18;100946.59;;;12.25;100.00
22333;BME280;11334;36.986;-121.936;2024-03-07T09:34:47;100942.28;;;12.24;100.00
22333;BME280;11334;36.986;-121.936;2024-03-07T09:37:15;100943.78;;;12.26;100.00
22333;BME280;11334;36.986;-121.936;2024-03-07T09:39:41;100930.66;;;12.25;100.00
22333;BME280;11334;36.986;-121.936;2024-03-07T09:42:08;100943.09;;;12.16;100.00
22333;BME280;11334;36.986;-121.936;2024-03-07T09:44:38;100933.44;;;12.15;100.00
22333;BME280;11334;36.986;-121.936;2024-03-07T09:47:07;100941.75;;;12.12;100.00
22333;BME280;11334;36.986;-121.936;2024-03-07T09:49:34;100938.59;;;12.09;100.00
22333;BME280;11334;36.986;-121.936;2024-03-07T09:52:07;100934.56;;;12.05;100.00
22333;BME280;11334;36.986;-121.936;2024-03-07T09:54:40;100934.41;;;11.99;100.00
22333;BME280;11334;36.986;-121.936;2024-03-07T09:57:06;100931.06;;;11.97;100.00
22333;BME280;11334;36.986;-121.936;2024-03-07T09:59:36;100931.69;;;11.91;100.00
22333;BME280;11334;36.986;-121.936;2024-03-07T10:02:06;100933.50;;;11.82;100.00
22333;BME280;11334;36.986;-121.936;2024-03-07T10:04:48;100927.69;;;11.79;100.00
22333;BME280;11334;36.986;-121.936;2024-03-07T10:07:15;100932.31;;;11.77;100.00
22333;BME280;11334;36.986;-121.936;2024-03-07T10:09:42;100936.59;;;11.70;100.00
22333;BME280;11334;36.986;-121.936;2024-03-07T10:12:09;100928.66;;;11.70;100.00
22333;BME280;11334;36.986;-121.936;2024-03-07T10:14:51;100929.31;;;11.72;100.00
22333;BME280;11334;36.986;-121.936;2024-03-07T10:17:19;100927.28;;;11.66;100.00
22333;BME280;11334;36.986;-121.936;2024-03-07T10:19:48;100925.44;;;11.59;100.00
22333;BME280;11334;36.986;-121.936;2024-03-07T10:22:16;100927.78;;;11.62;100.00
22333;BME280;11334;36.986;-121.936;2024-03-07T10:24:53;100923.28;;;11.54;100.00
22333;BME280;11334;36.986;-121.936;2024-03-07T10:27:20;100922.06;;;11.49;100.00
22333;BME280;11334;36.986;-121.936;2024-03-07T10:29:47;100919.41;;;11.49;100.00
22333;BME280;11334;36.986;-121.936;2024-03-07T10:32:20;100916.09;;;11.47;100.00
22333;BME280;11334;36.986;-121.936;2024-03-07T10:34:47;100929.38;;;11.47;100.00
22333;BME280;11334;36.986;-121.936;2024-03-07T10:37:15;100922.03;;;11.41;100.00
22333;BME280;11334;36.986;-121.936;2024-03-07T10:39:45;100923.72;;;11.42;100.00
22333;BME280;11334;36.986;-121.936;2024-03-07T10:42:15;100935.56;;;11.38;100.00
22333;BME280;11334;36.986;-121.936;2024-03-07T10:44:46;100932.56;;;11.33;100.00
22333;BME280;11334;36.986;-121.936;2024-03-07T10:47:23;100936.53;;;11.29;100.00
22333;BME280;11334;36.986;-121.936;2024-03-07T10:50:43;100929.41;;;11.30;100.00
22333;BME280;11334;36.986;-121.936;2024-03-07T11:01:13;100916.50;;;11.09;100.00
22333;BME280;11334;36.986;-121.936;2024-03-07T11:03:40;100918.16;;;11.10;100.00
22333;BME280;11334;36.986;-121.936;2024-03-07T11:06:08;100918.94;;;11.03;100.00
22333;BME280;11334;36.986;-121.936;2024-03-07T11:08:37;100916.28;;;11.03;100.00
22333;BME280;11334;36.986;-121.936;2024-03-07T11:11:04;100910.47;;;11.00;100.00
22333;BME280;11334;36.986;-121.936;2024-03-07T11:13:33;100910.63;;;10.98;100.00
22333;BME280;11334;36.986;-121.936;2024-03-07T11:16:01;100915.78;;;11.00;100.00
22333;BME280;11334;36.986;-121.936;2024-03-07T11:18:28;100912.13;;;11.01;100.00
22333;BME280;11334;36.986;-121.936;2024-03-07T11:20:55;100914.94;;;10.99;100.00
22333;BME280;11334;36.986;-121.936;2024-03-07T11:23:30;100915.06;;;10.90;100.00
22333;BME280;11334;36.986;-121.936;2024-03-07T11:26:04;100926.41;;;10.82;100.00
22333;BME280;11334;36.986;-121.936;2024-03-07T11:28:39;100919.28;;;10.83;100.00
22333;BME280;11334;36.986;-121.936;2024-03-07T11:31:26;100927.38;;;10.81;100.00
22333;BME280;11334;36.986;-121.936;2024-03-07T11:34:13;100926.19;;;10.76;100.00
22333;BME280;11334;36.986;-121.936;2024-03-07T11:36:48;100918.88;;;10.70;100.00
22333;BME280;11334;36.986;-121.936;2024-03-07T11:39:43;100923.47;;;10.68;100.00
22333;BME280;11334;36.986;-121.936;2024-03-07T11:42:25;100921.41;;;10.62;100.00
22333;BME280;11334;36.986;-121.936;2024-03-07T11:44:52;100919.47;;;10.64;100.00
22333;BME280;11334;36.986;-121.936;2024-03-07T11:47:22;100924.06;;;10.62;100.00
22333;BME280;11334;36.986;-121.936;2024-03-07T11:49:50;100921.41;;;10.62;100.00
22333;BME280;11334;36.986;-121.936;2024-03-07T11:52:18;100920.59;;;10.62;100.00
22333;BME280;11334;36.986;-121.936;2024-03-07T11:54:45;100920.59;;;10.62;100.00
22333;BME280;11334;36.986;-121.936;2024-03-07T11:57:18;100925.06;;;10.61;100.00
22333;BME280;11334;36.986;-121.936;2024-03-07T11:59:58;100923.88;;;10.56;100.00
22333;BME280;11334;36.986;-121.936;2024-03-07T12:02:27;100926.91;;;10.61;100.00
22333;BME280;11334;36.986;-121.936;2024-03-07T12:04:55;100929.00;;;10.57;100.00
22333;BME280;11334;36.986;-121.936;2024-03-07T12:07:21;100932.34;;;10.59;100.00
22333;BME280;11334;36.986;-121.936;2024-03-07T12:09:51;100934.16;;;10.59;100.00
22333;BME280;11334;36.986;-121.936;2024-03-07T12:12:21;100930.50;;;10.60;100.00
22333;BME280;11334;36.986;-121.936;2024-03-07T12:14:48;100923.69;;;10.57;100.00
22333;BME280;11334;36.986;-121.936;2024-03-07T12:17:18;100935.16;;;10.58;100.00
22333;BME280;11334;36.986;-121.936;2024-03-07T12:19:45;100947.53;;;10.57;100.00
22333;BME280;11334;36.986;-121.936;2024-03-07T12:22:13;100955.72;;;10.64;100.00
22333;BME280;11334;36.986;-121.936;2024-03-07T12:24:42;100951.25;;;10.64;100.00